Greenport, New York
Current Conditions -  °F | °C
As of 3:55 AM on Sunday 23 Nov 2014 (Local Time) from KSNC Reporting Station
Broken Clouds Broken Clouds  
Wind Chill: 38°   Ceiling: 10000
Heat Index: 43°   Visibility: 10mi
Dew Point: 27°   Wind: 8mph
Humidity: 53%   Direction: 240°WSW
Pressure: 30.15"   Gusts: NA
Location:  41.1°N, 72.36°W
Report Text: KSNC 230855Z AUTO 24007KT 10SM BKN100 06/M03 A3015 RMK AO2
Loading
Personal Weather Stations






























Interactive Weather Map New forecast layout! Learn more

10-Day Weather Forecast

Advertisements
Track Severe Weather on mobile